sensor_id;sensor_type;location;lat;lon;timestamp;P1;durP1;ratioP1;P2;durP2;ratioP2
28762;SDS011;15918;51.270;6.522;2022-08-03T00:02:25;6.22;;;4.25;;
28762;SDS011;15918;51.270;6.522;2022-08-03T00:04:51;7.13;;;3.75;;
28762;SDS011;15918;51.270;6.522;2022-08-03T00:07:17;8.98;;;3.50;;
28762;SDS011;15918;51.270;6.522;2022-08-03T00:09:42;4.10;;;3.30;;
28762;SDS011;15918;51.270;6.522;2022-08-03T00:12:08;4.40;;;3.00;;
28762;SDS011;15918;51.270;6.522;2022-08-03T00:14:34;3.30;;;3.00;;
28762;SDS011;15918;51.270;6.522;2022-08-03T00:16:59;2.80;;;2.60;;
28762;SDS011;15918;51.270;6.522;2022-08-03T00:19:25;3.78;;;3.10;;
28762;SDS011;15918;51.270;6.522;2022-08-03T00:21:51;5.85;;;3.47;;
28762;SDS011;15918;51.270;6.522;2022-08-03T00:24:18;4.80;;;3.22;;
28762;SDS011;15918;51.270;6.522;2022-08-03T00:26:44;3.45;;;2.80;;
28762;SDS011;15918;51.270;6.522;2022-08-03T00:29:10;6.75;;;3.45;;
28762;SDS011;15918;51.270;6.522;2022-08-03T00:31:35;3.75;;;3.28;;
28762;SDS011;15918;51.270;6.522;2022-08-03T00:34:01;4.93;;;3.35;;
28762;SDS011;15918;51.270;6.522;2022-08-03T00:36:26;4.70;;;2.60;;
28762;SDS011;15918;51.270;6.522;2022-08-03T00:38:52;6.18;;;3.10;;
28762;SDS011;15918;51.270;6.522;2022-08-03T00:41:18;7.47;;;3.05;;
28762;SDS011;15918;51.270;6.522;2022-08-03T00:43:44;3.47;;;2.63;;
28762;SDS011;15918;51.270;6.522;2022-08-03T00:46:11;2.95;;;2.53;;
28762;SDS011;15918;51.270;6.522;2022-08-03T00:48:37;5.25;;;2.67;;
28762;SDS011;15918;51.270;6.522;2022-08-03T00:51:02;4.72;;;2.90;;
28762;SDS011;15918;51.270;6.522;2022-08-03T00:53:29;3.92;;;2.65;;
28762;SDS011;15918;51.270;6.522;2022-08-03T00:55:55;3.88;;;3.03;;
28762;SDS011;15918;51.270;6.522;2022-08-03T00:58:21;3.47;;;3.17;;
28762;SDS011;15918;51.270;6.522;2022-08-03T01:00:48;4.68;;;3.35;;
28762;SDS011;15918;51.270;6.522;2022-08-03T01:03:13;6.18;;;3.22;;
28762;SDS011;15918;51.270;6.522;2022-08-03T01:05:44;5.13;;;3.15;;
28762;SDS011;15918;51.270;6.522;2022-08-03T01:11:14;4.25;;;2.78;;
28762;SDS011;15918;51.270;6.522;2022-08-03T01:14:03;4.82;;;2.80;;
28762;SDS011;15918;51.270;6.522;2022-08-03T01:22:21;4.50;;;3.28;;
28762;SDS011;15918;51.270;6.522;2022-08-03T01:25:18;4.78;;;2.83;;
28762;SDS011;15918;51.270;6.522;2022-08-03T01:31:03;4.22;;;2.65;;
28762;SDS011;15918;51.270;6.522;2022-08-03T01:33:36;4.32;;;3.13;;
28762;SDS011;15918;51.270;6.522;2022-08-03T01:36:06;4.35;;;2.58;;
28762;SDS011;15918;51.270;6.522;2022-08-03T01:38:40;4.93;;;2.80;;
28762;SDS011;15918;51.270;6.522;2022-08-03T01:41:10;5.22;;;2.92;;
28762;SDS011;15918;51.270;6.522;2022-08-03T01:43:38;2.88;;;2.58;;
28762;SDS011;15918;51.270;6.522;2022-08-03T01:46:06;4.38;;;2.80;;
28762;SDS011;15918;51.270;6.522;2022-08-03T01:48:34;6.57;;;2.80;;
28762;SDS011;15918;51.270;6.522;2022-08-03T01:51:01;5.15;;;3.38;;
28762;SDS011;15918;51.270;6.522;2022-08-03T01:53:27;4.90;;;2.90;;
28762;SDS011;15918;51.270;6.522;2022-08-03T01:55:56;5.80;;;2.70;;
28762;SDS011;15918;51.270;6.522;2022-08-03T01:58:23;4.63;;;2.95;;
28762;SDS011;15918;51.270;6.522;2022-08-03T02:00:49;3.67;;;2.60;;
28762;SDS011;15918;51.270;6.522;2022-08-03T02:03:16;4.82;;;3.05;;
28762;SDS011;15918;51.270;6.522;2022-08-03T02:05:44;4.50;;;2.83;;
28762;SDS011;15918;51.270;6.522;2022-08-03T02:08:12;4.15;;;3.10;;
28762;SDS011;15918;51.270;6.522;2022-08-03T02:10:40;5.35;;;2.92;;
28762;SDS011;15918;51.270;6.522;2022-08-03T02:13:07;5.82;;;3.00;;
28762;SDS011;15918;51.270;6.522;2022-08-03T02:15:37;3.42;;;3.00;;
28762;SDS011;15918;51.270;6.522;2022-08-03T02:18:04;4.80;;;2.83;;
28762;SDS011;15918;51.270;6.522;2022-08-03T02:20:32;5.32;;;3.38;;
28762;SDS011;15918;51.270;6.522;2022-08-03T02:23:00;5.80;;;3.65;;
28762;SDS011;15918;51.270;6.522;2022-08-03T02:25:26;5.82;;;2.92;;
28762;SDS011;15918;51.270;6.522;2022-08-03T02:28:01;7.18;;;3.20;;
28762;SDS011;15918;51.270;6.522;2022-08-03T02:30:33;3.45;;;2.72;;
28762;SDS011;15918;51.270;6.522;2022-08-03T02:33:02;7.15;;;3.20;;
28762;SDS011;15918;51.270;6.522;2022-08-03T02:35:31;6.60;;;2.80;;
28762;SDS011;15918;51.270;6.522;2022-08-03T02:38:02;7.05;;;3.22;;
28762;SDS011;15918;51.270;6.522;2022-08-03T02:40:31;5.18;;;3.10;;
28762;SDS011;15918;51.270;6.522;2022-08-03T02:42:58;7.63;;;3.70;;
28762;SDS011;15918;51.270;6.522;2022-08-03T02:45:27;3.97;;;3.30;;
28762;SDS011;15918;51.270;6.522;2022-08-03T02:47:55;5.13;;;3.08;;
28762;SDS011;15918;51.270;6.522;2022-08-03T02:50:25;7.72;;;3.88;;
28762;SDS011;15918;51.270;6.522;2022-08-03T02:52:52;6.75;;;3.72;;
28762;SDS011;15918;51.270;6.522;2022-08-03T02:55:20;6.63;;;3.58;;
28762;SDS011;15918;51.270;6.522;2022-08-03T02:57:47;4.82;;;3.95;;
28762;SDS011;15918;51.270;6.522;2022-08-03T03:00:15;8.70;;;3.50;;
28762;SDS011;15918;51.270;6.522;2022-08-03T03:02:41;4.20;;;3.20;;
28762;SDS011;15918;51.270;6.522;2022-08-03T03:05:08;6.03;;;3.42;;
28762;SDS011;15918;51.270;6.522;2022-08-03T03:07:35;6.95;;;3.20;;
28762;SDS011;15918;51.270;6.522;2022-08-03T03:10:02;7.00;;;2.90;;
28762;SDS011;15918;51.270;6.522;2022-08-03T03:12:30;5.40;;;3.17;;
28762;SDS011;15918;51.270;6.522;2022-08-03T03:14:57;7.22;;;3.67;;
28762;SDS011;15918;51.270;6.522;2022-08-03T03:17:23;9.18;;;3.88;;
28762;SDS011;15918;51.270;6.522;2022-08-03T03:19:49;6.15;;;3.25;;
28762;SDS011;15918;51.270;6.522;2022-08-03T03:22:16;6.30;;;2.85;;
28762;SDS011;15918;51.270;6.522;2022-08-03T03:24:43;8.85;;;3.72;;
28762;SDS011;15918;51.270;6.522;2022-08-03T03:27:10;5.85;;;2.72;;
28762;SDS011;15918;51.270;6.522;2022-08-03T03:29:37;8.52;;;3.40;;
28762;SDS011;15918;51.270;6.522;2022-08-03T03:32:03;4.85;;;3.33;;
28762;SDS011;15918;51.270;6.522;2022-08-03T03:34:29;4.97;;;3.38;;
28762;SDS011;15918;51.270;6.522;2022-08-03T03:36:56;4.13;;;3.00;;
28762;SDS011;15918;51.270;6.522;2022-08-03T03:39:21;5.47;;;3.40;;
28762;SDS011;15918;51.270;6.522;2022-08-03T03:41:47;6.38;;;3.67;;
28762;SDS011;15918;51.270;6.522;2022-08-03T03:44:13;9.18;;;3.80;;
28762;SDS011;15918;51.270;6.522;2022-08-03T03:46:39;10.68;;;3.85;;
28762;SDS011;15918;51.270;6.522;2022-08-03T03:49:05;5.78;;;3.70;;
28762;SDS011;15918;51.270;6.522;2022-08-03T03:51:31;5.45;;;3.30;;
28762;SDS011;15918;51.270;6.522;2022-08-03T03:54:01;5.38;;;3.15;;
28762;SDS011;15918;51.270;6.522;2022-08-03T03:56:28;6.60;;;3.30;;
28762;SDS011;15918;51.270;6.522;2022-08-03T03:58:54;8.05;;;3.80;;
28762;SDS011;15918;51.270;6.522;2022-08-03T04:01:20;7.43;;;3.83;;
28762;SDS011;15918;51.270;6.522;2022-08-03T04:03:46;7.80;;;3.42;;
28762;SDS011;15918;51.270;6.522;2022-08-03T04:06:12;8.30;;;3.72;;
28762;SDS011;15918;51.270;6.522;2022-08-03T04:08:57;7.13;;;3.95;;
28762;SDS011;15918;51.270;6.522;2022-08-03T04:14:24;6.65;;;3.22;;
28762;SDS011;15918;51.270;6.522;2022-08-03T04:16:54;5.38;;;3.38;;
28762;SDS011;15918;51.270;6.522;2022-08-03T04:19:27;8.82;;;3.58;;
28762;SDS011;15918;51.270;6.522;2022-08-03T04:21:58;7.13;;;3.20;;
28762;SDS011;15918;51.270;6.522;2022-08-03T04:24:26;5.47;;;3.15;;
28762;SDS011;15918;51.270;6.522;2022-08-03T04:26:56;7.70;;;3.75;;
28762;SDS011;15918;51.270;6.522;2022-08-03T04:29:24;16.52;;;4.63;;
28762;SDS011;15918;51.270;6.522;2022-08-03T04:31:53;6.85;;;3.28;;
28762;SDS011;15918;51.270;6.522;2022-08-03T04:34:19;10.82;;;4.30;;
28762;SDS011;15918;51.270;6.522;2022-08-03T04:36:46;7.07;;;3.60;;
28762;SDS011;15918;51.270;6.522;2022-08-03T04:39:15;5.68;;;3.45;;
28762;SDS011;15918;51.270;6.522;2022-08-03T04:41:43;10.10;;;3.22;;
28762;SDS011;15918;51.270;6.522;2022-08-03T04:44:10;9.27;;;3.63;;
28762;SDS011;15918;51.270;6.522;2022-08-03T04:46:37;7.60;;;3.88;;
28762;SDS011;15918;51.270;6.522;2022-08-03T04:49:04;9.38;;;3.70;;
28762;SDS011;15918;51.270;6.522;2022-08-03T04:51:30;7.25;;;4.20;;
28762;SDS011;15918;51.270;6.522;2022-08-03T04:53:59;7.53;;;3.47;;
28762;SDS011;15918;51.270;6.522;2022-08-03T04:56:25;8.30;;;3.63;;
28762;SDS011;15918;51.270;6.522;2022-08-03T04:58:50;8.13;;;4.28;;
28762;SDS011;15918;51.270;6.522;2022-08-03T05:01:16;5.65;;;3.60;;
28762;SDS011;15918;51.270;6.522;2022-08-03T05:03:44;10.73;;;3.95;;
28762;SDS011;15918;51.270;6.522;2022-08-03T05:06:10;8.05;;;3.85;;
28762;SDS011;15918;51.270;6.522;2022-08-03T05:08:36;11.60;;;3.92;;
28762;SDS011;15918;51.270;6.522;2022-08-03T05:11:02;5.90;;;3.42;;
28762;SDS011;15918;51.270;6.522;2022-08-03T05:13:27;7.63;;;3.58;;
28762;SDS011;15918;51.270;6.522;2022-08-03T05:15:53;7.85;;;3.80;;
28762;SDS011;15918;51.270;6.522;2022-08-03T05:18:19;9.27;;;4.00;;
28762;SDS011;15918;51.270;6.522;2022-08-03T05:20:45;8.40;;;3.75;;
28762;SDS011;15918;51.270;6.522;2022-08-03T05:23:11;6.50;;;3.55;;
28762;SDS011;15918;51.270;6.522;2022-08-03T05:25:36;6.13;;;3.53;;
28762;SDS011;15918;51.270;6.522;2022-08-03T05:28:02;9.93;;;3.92;;
28762;SDS011;15918;51.270;6.522;2022-08-03T05:30:28;6.43;;;4.00;;
28762;SDS011;15918;51.270;6.522;2022-08-03T05:32:54;10.98;;;4.25;;
28762;SDS011;15918;51.270;6.522;2022-08-03T05:35:19;14.20;;;4.30;;
28762;SDS011;15918;51.270;6.522;2022-08-03T05:37:47;7.65;;;4.00;;
28762;SDS011;15918;51.270;6.522;2022-08-03T05:40:12;7.55;;;3.88;;
28762;SDS011;15918;51.270;6.522;2022-08-03T05:42:38;6.22;;;3.70;;
28762;SDS011;15918;51.270;6.522;2022-08-03T05:45:04;10.20;;;4.25;;
28762;SDS011;15918;51.270;6.522;2022-08-03T05:47:41;11.63;;;4.03;;
28762;SDS011;15918;51.270;6.522;2022-08-03T05:50:08;7.90;;;3.85;;
28762;SDS011;15918;51.270;6.522;2022-08-03T05:52:35;15.95;;;4.13;;
28762;SDS011;15918;51.270;6.522;2022-08-03T05:55:02;11.65;;;4.32;;
28762;SDS011;15918;51.270;6.522;2022-08-03T05:57:28;9.05;;;3.97;;
28762;SDS011;15918;51.270;6.522;2022-08-03T05:59:54;17.60;;;4.40;;
28762;SDS011;15918;51.270;6.522;2022-08-03T06:02:19;9.88;;;3.80;;
28762;SDS011;15918;51.270;6.522;2022-08-03T06:04:45;9.57;;;4.15;;
28762;SDS011;15918;51.270;6.522;2022-08-03T06:07:10;9.55;;;4.05;;
28762;SDS011;15918;51.270;6.522;2022-08-03T06:09:36;9.70;;;4.28;;
28762;SDS011;15918;51.270;6.522;2022-08-03T06:12:02;15.60;;;4.30;;
28762;SDS011;15918;51.270;6.522;2022-08-03T06:14:28;13.00;;;4.18;;
28762;SDS011;15918;51.270;6.522;2022-08-03T06:16:53;14.32;;;4.65;;
28762;SDS011;15918;51.270;6.522;2022-08-03T06:19:19;7.82;;;4.35;;
28762;SDS011;15918;51.270;6.522;2022-08-03T06:21:45;13.07;;;4.55;;
28762;SDS011;15918;51.270;6.522;2022-08-03T06:24:10;11.55;;;4.00;;
28762;SDS011;15918;51.270;6.522;2022-08-03T06:26:36;13.73;;;4.05;;
28762;SDS011;15918;51.270;6.522;2022-08-03T06:29:02;14.57;;;4.30;;
28762;SDS011;15918;51.270;6.522;2022-08-03T06:31:27;8.43;;;3.65;;
28762;SDS011;15918;51.270;6.522;2022-08-03T06:33:53;15.15;;;3.90;;
28762;SDS011;15918;51.270;6.522;2022-08-03T06:36:19;8.68;;;3.72;;
28762;SDS011;15918;51.270;6.522;2022-08-03T06:38:45;12.57;;;4.80;;
28762;SDS011;15918;51.270;6.522;2022-08-03T06:41:10;13.15;;;4.80;;
28762;SDS011;15918;51.270;6.522;2022-08-03T06:43:36;18.15;;;4.57;;
28762;SDS011;15918;51.270;6.522;2022-08-03T06:46:02;12.52;;;4.38;;
28762;SDS011;15918;51.270;6.522;2022-08-03T06:48:31;11.00;;;4.05;;
28762;SDS011;15918;51.270;6.522;2022-08-03T06:50:57;10.55;;;4.55;;
28762;SDS011;15918;51.270;6.522;2022-08-03T06:53:23;9.70;;;3.90;;
28762;SDS011;15918;51.270;6.522;2022-08-03T06:55:48;11.63;;;4.55;;
28762;SDS011;15918;51.270;6.522;2022-08-03T06:58:14;11.00;;;4.22;;
28762;SDS011;15918;51.270;6.522;2022-08-03T07:00:40;10.75;;;3.88;;
28762;SDS011;15918;51.270;6.522;2022-08-03T07:03:05;10.02;;;4.03;;
28762;SDS011;15918;51.270;6.522;2022-08-03T07:05:31;11.02;;;4.63;;
28762;SDS011;15918;51.270;6.522;2022-08-03T07:07:59;12.07;;;3.92;;
28762;SDS011;15918;51.270;6.522;2022-08-03T07:10:25;12.15;;;3.92;;
28762;SDS011;15918;51.270;6.522;2022-08-03T07:12:51;9.75;;;4.22;;
28762;SDS011;15918;51.270;6.522;2022-08-03T07:15:17;13.10;;;4.32;;
28762;SDS011;15918;51.270;6.522;2022-08-03T07:17:43;11.65;;;4.20;;
28762;SDS011;15918;51.270;6.522;2022-08-03T07:20:08;10.07;;;4.22;;
28762;SDS011;15918;51.270;6.522;2022-08-03T07:22:34;7.50;;;3.58;;
28762;SDS011;15918;51.270;6.522;2022-08-03T07:25:00;9.90;;;3.83;;
28762;SDS011;15918;51.270;6.522;2022-08-03T07:27:26;7.25;;;3.65;;
28762;SDS011;15918;51.270;6.522;2022-08-03T07:29:53;10.20;;;3.67;;
28762;SDS011;15918;51.270;6.522;2022-08-03T07:32:19;10.85;;;3.78;;
28762;SDS011;15918;51.270;6.522;2022-08-03T07:34:44;10.52;;;3.63;;
28762;SDS011;15918;51.270;6.522;2022-08-03T07:37:10;7.40;;;3.85;;
28762;SDS011;15918;51.270;6.522;2022-08-03T07:39:36;9.50;;;3.90;;
28762;SDS011;15918;51.270;6.522;2022-08-03T07:42:01;7.57;;;3.45;;
28762;SDS011;15918;51.270;6.522;2022-08-03T07:44:27;10.93;;;3.22;;
28762;SDS011;15918;51.270;6.522;2022-08-03T07:46:53;7.85;;;3.42;;
28762;SDS011;15918;51.270;6.522;2022-08-03T07:49:18;4.97;;;3.28;;
28762;SDS011;15918;51.270;6.522;2022-08-03T07:51:44;6.05;;;3.70;;
28762;SDS011;15918;51.270;6.522;2022-08-03T07:54:09;12.68;;;3.45;;
28762;SDS011;15918;51.270;6.522;2022-08-03T07:56:35;9.20;;;3.35;;
28762;SDS011;15918;51.270;6.522;2022-08-03T07:59:01;9.68;;;3.63;;
28762;SDS011;15918;51.270;6.522;2022-08-03T08:01:27;6.82;;;3.40;;
28762;SDS011;15918;51.270;6.522;2022-08-03T08:03:53;6.95;;;3.42;;
28762;SDS011;15918;51.270;6.522;2022-08-03T08:06:19;7.10;;;3.15;;
28762;SDS011;15918;51.270;6.522;2022-08-03T08:08:45;9.50;;;3.38;;
28762;SDS011;15918;51.270;6.522;2022-08-03T08:11:12;7.70;;;3.10;;
28762;SDS011;15918;51.270;6.522;2022-08-03T08:13:37;8.40;;;3.38;;
28762;SDS011;15918;51.270;6.522;2022-08-03T08:16:03;8.73;;;3.28;;
28762;SDS011;15918;51.270;6.522;2022-08-03T08:18:29;6.68;;;2.53;;
28762;SDS011;15918;51.270;6.522;2022-08-03T08:20:55;6.97;;;3.13;;
28762;SDS011;15918;51.270;6.522;2022-08-03T08:23:21;6.85;;;2.67;;
28762;SDS011;15918;51.270;6.522;2022-08-03T08:25:48;10.27;;;3.13;;
28762;SDS011;15918;51.270;6.522;2022-08-03T08:28:18;6.32;;;2.25;;
28762;SDS011;15918;51.270;6.522;2022-08-03T08:30:45;2.83;;;2.35;;
28762;SDS011;15918;51.270;6.522;2022-08-03T08:33:10;4.50;;;2.17;;
28762;SDS011;15918;51.270;6.522;2022-08-03T08:35:36;7.03;;;2.90;;
28762;SDS011;15918;51.270;6.522;2022-08-03T08:38:02;5.10;;;2.38;;
28762;SDS011;15918;51.270;6.522;2022-08-03T08:40:28;2.80;;;2.20;;
28762;SDS011;15918;51.270;6.522;2022-08-03T08:42:53;4.72;;;2.28;;
28762;SDS011;15918;51.270;6.522;2022-08-03T08:45:19;5.57;;;2.22;;
28762;SDS011;15918;51.270;6.522;2022-08-03T08:47:45;3.90;;;2.13;;
28762;SDS011;15918;51.270;6.522;2022-08-03T08:50:12;6.05;;;2.25;;
28762;SDS011;15918;51.270;6.522;2022-08-03T08:52:42;7.13;;;2.17;;
28762;SDS011;15918;51.270;6.522;2022-08-03T08:55:09;5.90;;;1.88;;
28762;SDS011;15918;51.270;6.522;2022-08-03T08:57:39;3.58;;;2.05;;
28762;SDS011;15918;51.270;6.522;2022-08-03T09:00:10;4.47;;;2.08;;
28762;SDS011;15918;51.270;6.522;2022-08-03T09:02:39;6.72;;;2.65;;
28762;SDS011;15918;51.270;6.522;2022-08-03T09:05:18;4.13;;;2.20;;
28762;SDS011;15918;51.270;6.522;2022-08-03T09:07:45;8.38;;;2.50;;
28762;SDS011;15918;51.270;6.522;2022-08-03T09:10:12;7.43;;;2.08;;
28762;SDS011;15918;51.270;6.522;2022-08-03T09:12:43;5.65;;;2.63;;
28762;SDS011;15918;51.270;6.522;2022-08-03T09:15:26;3.67;;;1.83;;
28762;SDS011;15918;51.270;6.522;2022-08-03T09:17:58;6.07;;;1.92;;
28762;SDS011;15918;51.270;6.522;2022-08-03T09:20:25;5.00;;;2.10;;
28762;SDS011;15918;51.270;6.522;2022-08-03T09:23:00;10.05;;;2.28;;
28762;SDS011;15918;51.270;6.522;2022-08-03T09:25:29;5.20;;;2.35;;
28762;SDS011;15918;51.270;6.522;2022-08-03T09:28:03;8.90;;;2.33;;
28762;SDS011;15918;51.270;6.522;2022-08-03T09:30:32;8.38;;;2.35;;
28762;SDS011;15918;51.270;6.522;2022-08-03T09:32:59;7.82;;;2.53;;
28762;SDS011;15918;51.270;6.522;2022-08-03T09:35:28;5.40;;;2.50;;
28762;SDS011;15918;51.270;6.522;2022-08-03T09:38:13;7.10;;;1.90;;
28762;SDS011;15918;51.270;6.522;2022-08-03T09:40:40;6.30;;;2.47;;
28762;SDS011;15918;51.270;6.522;2022-08-03T09:43:07;4.03;;;1.77;;
28762;SDS011;15918;51.270;6.522;2022-08-03T09:45:34;4.40;;;1.77;;
28762;SDS011;15918;51.270;6.522;2022-08-03T09:48:19;4.18;;;2.10;;
28762;SDS011;15918;51.270;6.522;2022-08-03T09:50:49;4.75;;;1.77;;
28762;SDS011;15918;51.270;6.522;2022-08-03T09:53:17;9.50;;;2.72;;
28762;SDS011;15918;51.270;6.522;2022-08-03T09:55:50;4.65;;;1.95;;
28762;SDS011;15918;51.270;6.522;2022-08-03T09:58:21;4.30;;;1.90;;
28762;SDS011;15918;51.270;6.522;2022-08-03T10:00:59;5.50;;;2.03;;
28762;SDS011;15918;51.270;6.522;2022-08-03T10:03:29;3.50;;;1.60;;
28762;SDS011;15918;51.270;6.522;2022-08-03T10:06:12;5.32;;;2.30;;
28762;SDS011;15918;51.270;6.522;2022-08-03T10:08:39;6.18;;;2.05;;
28762;SDS011;15918;51.270;6.522;2022-08-03T10:11:05;6.03;;;2.05;;
28762;SDS011;15918;51.270;6.522;2022-08-03T10:13:30;4.22;;;2.00;;
28762;SDS011;15918;51.270;6.522;2022-08-03T10:15:57;3.95;;;1.70;;
28762;SDS011;15918;51.270;6.522;2022-08-03T10:18:23;3.63;;;2.00;;
28762;SDS011;15918;51.270;6.522;2022-08-03T10:20:50;5.97;;;2.03;;
28762;SDS011;15918;51.270;6.522;2022-08-03T10:23:17;4.47;;;1.92;;
28762;SDS011;15918;51.270;6.522;2022-08-03T10:25:48;5.45;;;1.55;;
28762;SDS011;15918;51.270;6.522;2022-08-03T10:28:21;3.67;;;1.60;;
28762;SDS011;15918;51.270;6.522;2022-08-03T10:30:49;10.73;;;1.73;;
28762;SDS011;15918;51.270;6.522;2022-08-03T10:33:20;5.35;;;1.90;;
28762;SDS011;15918;51.270;6.522;2022-08-03T10:35:50;2.70;;;2.00;;
28762;SDS011;15918;51.270;6.522;2022-08-03T10:38:20;5.90;;;1.58;;
28762;SDS011;15918;51.270;6.522;2022-08-03T10:40:49;5.18;;;1.67;;
28762;SDS011;15918;51.270;6.522;2022-08-03T10:43:20;4.05;;;1.85;;
28762;SDS011;15918;51.270;6.522;2022-08-03T10:45:55;6.28;;;2.10;;
28762;SDS011;15918;51.270;6.522;2022-08-03T10:48:22;5.80;;;1.73;;
28762;SDS011;15918;51.270;6.522;2022-08-03T10:50:49;4.30;;;2.00;;
28762;SDS011;15918;51.270;6.522;2022-08-03T10:53:15;3.03;;;1.60;;
28762;SDS011;15918;51.270;6.522;2022-08-03T10:55:41;2.92;;;1.40;;
28762;SDS011;15918;51.270;6.522;2022-08-03T11:01:03;3.75;;;1.83;;
28762;SDS011;15918;51.270;6.522;2022-08-03T11:03:29;3.38;;;1.63;;
28762;SDS011;15918;51.270;6.522;2022-08-03T11:06:30;5.53;;;1.67;;
28762;SDS011;15918;51.270;6.522;2022-08-03T11:09:35;3.72;;;1.45;;
28762;SDS011;15918;51.270;6.522;2022-08-03T11:11:41;3.55;;;1.75;;
28762;SDS011;15918;51.270;6.522;2022-08-03T11:14:10;4.15;;;2.03;;
28762;SDS011;15918;51.270;6.522;2022-08-03T11:19:09;5.55;;;2.00;;
28762;SDS011;15918;51.270;6.522;2022-08-03T11:29:58;1.63;;;1.52;;
28762;SDS011;15918;51.270;6.522;2022-08-03T11:32:53;3.65;;;1.77;;
28762;SDS011;15918;51.270;6.522;2022-08-03T11:35:31;6.95;;;2.15;;
28762;SDS011;15918;51.270;6.522;2022-08-03T11:46:05;4.75;;;1.60;;
28762;SDS011;15918;51.270;6.522;2022-08-03T11:51:00;4.60;;;1.60;;
28762;SDS011;15918;51.270;6.522;2022-08-03T11:53:30;5.68;;;1.90;;
28762;SDS011;15918;51.270;6.522;2022-08-03T11:55:59;4.13;;;1.73;;
28762;SDS011;15918;51.270;6.522;2022-08-03T11:58:26;4.50;;;2.15;;
28762;SDS011;15918;51.270;6.522;2022-08-03T12:01:02;5.18;;;1.98;;
28762;SDS011;15918;51.270;6.522;2022-08-03T12:03:31;3.83;;;1.85;;
28762;SDS011;15918;51.270;6.522;2022-08-03T12:05:58;6.45;;;2.17;;
28762;SDS011;15918;51.270;6.522;2022-08-03T12:10:56;5.72;;;2.25;;
28762;SDS011;15918;51.270;6.522;2022-08-03T12:13:23;5.30;;;1.88;;
28762;SDS011;15918;51.270;6.522;2022-08-03T12:15:53;6.18;;;1.60;;
28762;SDS011;15918;51.270;6.522;2022-08-03T12:18:21;5.95;;;1.70;;
28762;SDS011;15918;51.270;6.522;2022-08-03T12:20:48;4.45;;;1.88;;
28762;SDS011;15918;51.270;6.522;2022-08-03T12:23:15;4.72;;;1.38;;
28762;SDS011;15918;51.270;6.522;2022-08-03T12:25:42;3.53;;;1.60;;
28762;SDS011;15918;51.270;6.522;2022-08-03T12:28:14;2.72;;;1.63;;
28762;SDS011;15918;51.270;6.522;2022-08-03T12:30:43;4.43;;;1.60;;
28762;SDS011;15918;51.270;6.522;2022-08-03T12:33:11;3.72;;;1.67;;
28762;SDS011;15918;51.270;6.522;2022-08-03T12:35:41;3.45;;;2.10;;
28762;SDS011;15918;51.270;6.522;2022-08-03T12:38:07;7.47;;;1.90;;
28762;SDS011;15918;51.270;6.522;2022-08-03T12:40:34;3.55;;;1.77;;
28762;SDS011;15918;51.270;6.522;2022-08-03T12:42:59;9.07;;;1.90;;
28762;SDS011;15918;51.270;6.522;2022-08-03T12:45:26;4.90;;;1.55;;
28762;SDS011;15918;51.270;6.522;2022-08-03T12:47:56;3.90;;;1.52;;
28762;SDS011;15918;51.270;6.522;2022-08-03T12:53:00;4.60;;;1.70;;
28762;SDS011;15918;51.270;6.522;2022-08-03T12:55:28;2.35;;;1.35;;
28762;SDS011;15918;51.270;6.522;2022-08-03T12:58:01;2.60;;;1.60;;
28762;SDS011;15918;51.270;6.522;2022-08-03T13:00:28;2.30;;;1.42;;
28762;SDS011;15918;51.270;6.522;2022-08-03T13:02:58;2.13;;;1.23;;
28762;SDS011;15918;51.270;6.522;2022-08-03T13:05:28;4.22;;;1.65;;
28762;SDS011;15918;51.270;6.522;2022-08-03T13:07:54;4.50;;;1.73;;
28762;SDS011;15918;51.270;6.522;2022-08-03T13:10:28;4.63;;;1.60;;
28762;SDS011;15918;51.270;6.522;2022-08-03T13:12:55;4.22;;;1.50;;
28762;SDS011;15918;51.270;6.522;2022-08-03T13:15:23;4.95;;;1.40;;
28762;SDS011;15918;51.270;6.522;2022-08-03T13:17:54;4.00;;;1.40;;
28762;SDS011;15918;51.270;6.522;2022-08-03T13:20:20;3.25;;;1.50;;
28762;SDS011;15918;51.270;6.522;2022-08-03T13:22:47;2.35;;;1.35;;
28762;SDS011;15918;51.270;6.522;2022-08-03T13:25:13;3.42;;;1.40;;
28762;SDS011;15918;51.270;6.522;2022-08-03T13:27:38;5.25;;;1.58;;
28762;SDS011;15918;51.270;6.522;2022-08-03T13:30:05;2.65;;;1.33;;
28762;SDS011;15918;51.270;6.522;2022-08-03T13:32:31;6.43;;;1.35;;
28762;SDS011;15918;51.270;6.522;2022-08-03T13:34:57;3.95;;;1.70;;
28762;SDS011;15918;51.270;6.522;2022-08-03T13:37:23;4.32;;;1.20;;
28762;SDS011;15918;51.270;6.522;2022-08-03T13:39:49;4.72;;;1.25;;
28762;SDS011;15918;51.270;6.522;2022-08-03T13:42:15;3.28;;;1.25;;
28762;SDS011;15918;51.270;6.522;2022-08-03T13:44:41;3.65;;;1.33;;
28762;SDS011;15918;51.270;6.522;2022-08-03T13:47:07;4.05;;;1.48;;
28762;SDS011;15918;51.270;6.522;2022-08-03T13:49:32;5.45;;;1.40;;
28762;SDS011;15918;51.270;6.522;2022-08-03T13:51:58;3.65;;;1.48;;
28762;SDS011;15918;51.270;6.522;2022-08-03T13:54:24;5.30;;;1.40;;
28762;SDS011;15918;51.270;6.522;2022-08-03T13:56:50;4.00;;;0.95;;
28762;SDS011;15918;51.270;6.522;2022-08-03T13:59:18;3.05;;;1.30;;
28762;SDS011;15918;51.270;6.522;2022-08-03T14:01:45;2.72;;;1.05;;
28762;SDS011;15918;51.270;6.522;2022-08-03T14:04:11;4.32;;;1.02;;
28762;SDS011;15918;51.270;6.522;2022-08-03T14:06:37;4.78;;;1.05;;
28762;SDS011;15918;51.270;6.522;2022-08-03T14:09:02;2.55;;;1.13;;
28762;SDS011;15918;51.270;6.522;2022-08-03T14:11:28;2.42;;;1.08;;
28762;SDS011;15918;51.270;6.522;2022-08-03T14:13:54;3.58;;;1.00;;
28762;SDS011;15918;51.270;6.522;2022-08-03T14:16:20;5.38;;;1.00;;
28762;SDS011;15918;51.270;6.522;2022-08-03T14:18:45;4.15;;;1.42;;
28762;SDS011;15918;51.270;6.522;2022-08-03T14:21:11;3.47;;;1.17;;
28762;SDS011;15918;51.270;6.522;2022-08-03T14:23:37;2.10;;;1.00;;
28762;SDS011;15918;51.270;6.522;2022-08-03T14:26:03;1.33;;;0.80;;
28762;SDS011;15918;51.270;6.522;2022-08-03T14:28:32;3.35;;;1.05;;
28762;SDS011;15918;51.270;6.522;2022-08-03T14:30:58;4.03;;;1.23;;
28762;SDS011;15918;51.270;6.522;2022-08-03T14:33:24;2.60;;;0.73;;
28762;SDS011;15918;51.270;6.522;2022-08-03T14:35:52;1.00;;;0.80;;
28762;SDS011;15918;51.270;6.522;2022-08-03T14:38:21;3.22;;;1.38;;
28762;SDS011;15918;51.270;6.522;2022-08-03T14:40:47;3.60;;;1.25;;
28762;SDS011;15918;51.270;6.522;2022-08-03T14:43:14;4.70;;;1.63;;
28762;SDS011;15918;51.270;6.522;2022-08-03T14:45:42;1.15;;;1.05;;
28762;SDS011;15918;51.270;6.522;2022-08-03T14:48:07;1.83;;;1.08;;
28762;SDS011;15918;51.270;6.522;2022-08-03T14:50:33;3.83;;;1.10;;
28762;SDS011;15918;51.270;6.522;2022-08-03T14:52:58;2.40;;;1.25;;
28762;SDS011;15918;51.270;6.522;2022-08-03T14:55:24;2.72;;;1.15;;
28762;SDS011;15918;51.270;6.522;2022-08-03T14:57:50;2.45;;;1.23;;
28762;SDS011;15918;51.270;6.522;2022-08-03T15:00:15;2.03;;;1.30;;
28762;SDS011;15918;51.270;6.522;2022-08-03T15:02:41;4.28;;;1.35;;
28762;SDS011;15918;51.270;6.522;2022-08-03T15:05:07;2.85;;;0.98;;
28762;SDS011;15918;51.270;6.522;2022-08-03T15:07:34;3.15;;;1.10;;
28762;SDS011;15918;51.270;6.522;2022-08-03T15:10:00;2.40;;;1.00;;
28762;SDS011;15918;51.270;6.522;2022-08-03T15:12:25;2.17;;;1.10;;
28762;SDS011;15918;51.270;6.522;2022-08-03T15:14:51;2.08;;;0.90;;
28762;SDS011;15918;51.270;6.522;2022-08-03T15:17:17;3.95;;;1.00;;
28762;SDS011;15918;51.270;6.522;2022-08-03T15:19:42;4.18;;;1.20;;
28762;SDS011;15918;51.270;6.522;2022-08-03T15:22:08;2.33;;;1.20;;
28762;SDS011;15918;51.270;6.522;2022-08-03T15:24:34;2.42;;;1.00;;
28762;SDS011;15918;51.270;6.522;2022-08-03T15:26:59;2.72;;;1.60;;
28762;SDS011;15918;51.270;6.522;2022-08-03T15:29:25;4.30;;;1.67;;
28762;SDS011;15918;51.270;6.522;2022-08-03T15:31:50;3.40;;;1.17;;
28762;SDS011;15918;51.270;6.522;2022-08-03T15:34:16;7.80;;;1.63;;